createdAt,value
2022-08-07T00:00:19.991Z,1.17
2022-08-07T00:01:44.419Z,0.98
2022-08-07T00:02:53.877Z,1.08
2022-08-07T00:03:56.623Z,0.70
2022-08-07T00:05:08.022Z,1.27
2022-08-07T00:06:11.045Z,1.58
2022-08-07T00:07:15.986Z,1.08
2022-08-07T00:08:19.025Z,1.33
2022-08-07T00:09:29.163Z,1.40
2022-08-07T00:10:47.910Z,1.17
2022-08-07T00:12:00.279Z,1.98
2022-08-07T00:13:17.577Z,1.30
2022-08-07T00:14:31.489Z,0.70
2022-08-07T00:15:46.826Z,1.15
2022-08-07T00:16:54.678Z,1.67
2022-08-07T00:17:57.514Z,1.15
2022-08-07T00:19:02.020Z,1.25
2022-08-07T00:20:08.512Z,1.38
2022-08-07T00:21:56.475Z,2.05
2022-08-07T00:23:09.012Z,0.88
2022-08-07T00:24:12.781Z,0.70
2022-08-07T00:25:16.710Z,1.25
2022-08-07T00:26:59.209Z,0.82
2022-08-07T00:27:52.833Z,1.25
2022-08-07T00:28:57.403Z,1.02
2022-08-07T00:30:01.341Z,1.45
2022-08-07T00:31:12.731Z,1.20
2022-08-07T00:32:28.513Z,0.98
2022-08-07T00:33:32.817Z,1.00
2022-08-07T00:34:35.763Z,0.90
2022-08-07T00:35:39.287Z,0.70
2022-08-07T00:36:43.230Z,1.45
2022-08-07T00:37:54.203Z,1.55
2022-08-07T00:38:57.712Z,1.10
2022-08-07T00:40:00.455Z,1.33
2022-08-07T00:41:04.148Z,1.42
2022-08-07T00:42:12.663Z,1.38
2022-08-07T00:43:59.403Z,1.00
2022-08-07T00:44:46.375Z,1.58
2022-08-07T00:45:51.717Z,1.10
2022-08-07T00:46:56.192Z,1.05
2022-08-07T00:48:09.866Z,1.63
2022-08-07T00:49:24.913Z,0.75
2022-08-07T00:50:50.538Z,1.10
2022-08-07T00:51:57.514Z,1.50
2022-08-07T00:53:09.206Z,0.63
2022-08-07T00:54:15.067Z,1.27
2022-08-07T00:55:25.529Z,1.13
2022-08-07T00:56:49.559Z,1.45
2022-08-07T00:57:55.882Z,0.90
2022-08-07T00:59:06.026Z,0.65
2022-08-07T01:00:09.657Z,0.55
2022-08-07T01:01:14.613Z,1.05
2022-08-07T01:02:28.141Z,0.98
2022-08-07T01:03:55.449Z,1.10
2022-08-07T01:05:01.612Z,1.02
2022-08-07T01:06:04.913Z,1.17
2022-08-07T01:07:08.512Z,0.80
2022-08-07T01:08:11.177Z,1.10
2022-08-07T01:10:03.921Z,0.82
2022-08-07T01:10:54.441Z,0.98
2022-08-07T01:12:23.838Z,1.33
2022-08-07T01:13:23.449Z,0.80
2022-08-07T01:14:29.007Z,1.23
2022-08-07T01:16:05.422Z,1.33
2022-08-07T01:17:07.168Z,0.70
2022-08-07T01:18:10.900Z,1.08
2022-08-07T01:19:20.570Z,0.90
2022-08-07T01:20:33.573Z,0.95
2022-08-07T01:21:53.356Z,1.00
2022-08-07T01:23:12.076Z,0.82
2022-08-07T01:24:23.010Z,1.02
2022-08-07T01:25:53.743Z,0.93
2022-08-07T01:26:57.024Z,0.50
2022-08-07T01:28:01.788Z,0.85
2022-08-07T01:29:12.054Z,0.98
2022-08-07T01:30:15.886Z,0.82
2022-08-07T01:31:27.802Z,0.68
2022-08-07T01:32:45.130Z,1.70
2022-08-07T01:33:55.858Z,0.98
2022-08-07T01:35:08.024Z,1.42
2022-08-07T01:36:12.174Z,1.45
2022-08-07T01:37:21.909Z,1.02
2022-08-07T01:38:25.731Z,1.73
2022-08-07T01:39:40.885Z,1.08
2022-08-07T01:40:49.895Z,1.40
2022-08-07T01:42:07.857Z,1.05
2022-08-07T01:43:20.177Z,0.90
2022-08-07T01:44:30.081Z,1.08
2022-08-07T01:45:37.079Z,1.38
2022-08-07T01:46:42.852Z,0.75
2022-08-07T01:48:27.457Z,1.35
2022-08-07T01:49:09.655Z,1.23
2022-08-07T01:50:28.541Z,1.73
2022-08-07T01:52:03.912Z,1.17
2022-08-07T01:53:08.758Z,0.75
2022-08-07T01:54:32.595Z,1.67
2022-08-07T01:55:38.642Z,1.38
2022-08-07T01:56:50.041Z,1.15
2022-08-07T01:58:06.765Z,1.15
2022-08-07T01:59:20.407Z,1.48
2022-08-07T02:00:28.708Z,0.90
2022-08-07T02:02:02.741Z,1.15
2022-08-07T02:03:21.938Z,1.20
2022-08-07T02:04:31.549Z,1.30
2022-08-07T02:05:43.222Z,1.35
2022-08-07T02:06:51.290Z,2.00
2022-08-07T02:08:03.088Z,1.02
2022-08-07T02:09:11.718Z,1.25
2022-08-07T02:10:34.275Z,1.00
2022-08-07T02:12:02.665Z,1.25
2022-08-07T02:13:10.014Z,1.05
2022-08-07T02:14:36.130Z,2.15
2022-08-07T02:15:44.028Z,0.82
2022-08-07T02:16:47.750Z,1.45
2022-08-07T02:17:52.050Z,1.80
2022-08-07T02:19:02.049Z,1.70
2022-08-07T02:20:17.550Z,1.00
2022-08-07T02:21:56.773Z,0.82
2022-08-07T02:23:02.845Z,1.52
2022-08-07T02:24:06.201Z,1.23
2022-08-07T02:25:22.042Z,1.20
2022-08-07T02:26:52.060Z,1.15
2022-08-07T02:27:55.389Z,1.00
2022-08-07T02:29:00.061Z,1.25
2022-08-07T02:30:10.029Z,1.10
2022-08-07T02:31:28.871Z,1.15
2022-08-07T02:32:33.720Z,1.52
2022-08-07T02:33:57.224Z,0.95
2022-08-07T02:35:11.040Z,1.33
2022-08-07T02:36:30.420Z,0.90
2022-08-07T02:37:38.047Z,1.27
2022-08-07T02:38:50.789Z,1.45
2022-08-07T02:40:29.810Z,1.65
2022-08-07T02:41:37.019Z,1.50
2022-08-07T02:42:40.338Z,1.63
2022-08-07T02:43:47.694Z,1.63
2022-08-07T02:45:00.025Z,1.40
2022-08-07T02:46:11.421Z,1.40
2022-08-07T02:47:23.579Z,1.20
2022-08-07T02:48:28.154Z,2.13
2022-08-07T02:49:58.380Z,1.73
2022-08-07T02:51:02.083Z,2.17
2022-08-07T02:52:05.693Z,1.85
2022-08-07T02:53:13.200Z,1.33
2022-08-07T02:54:16.214Z,1.60
2022-08-07T02:55:28.341Z,1.00
2022-08-07T02:56:55.088Z,1.45
2022-08-07T02:58:02.833Z,1.35
2022-08-07T02:59:07.036Z,1.45
2022-08-07T03:00:11.851Z,1.63
2022-08-07T03:01:18.536Z,1.27
2022-08-07T03:02:30.051Z,1.75
2022-08-07T03:03:50.192Z,2.42
2022-08-07T03:04:55.218Z,1.27
2022-08-07T03:05:58.228Z,0.95
2022-08-07T03:07:07.378Z,0.77
2022-08-07T03:08:13.843Z,1.15
2022-08-07T03:09:42.307Z,1.35
2022-08-07T03:10:49.709Z,1.02
2022-08-07T03:12:02.839Z,1.30
2022-08-07T03:13:07.319Z,0.90
2022-08-07T03:14:10.830Z,1.27
2022-08-07T03:15:14.822Z,1.17
2022-08-07T03:16:33.484Z,1.30
2022-08-07T03:17:53.990Z,1.30
2022-08-07T03:18:56.965Z,1.70
2022-08-07T03:20:00.566Z,1.67
2022-08-07T03:21:11.363Z,1.48
2022-08-07T03:22:30.518Z,1.33
2022-08-07T03:24:20.498Z,1.85
2022-08-07T03:25:03.810Z,1.88
2022-08-07T03:26:15.541Z,1.15
2022-08-07T03:27:30.485Z,1.15
2022-08-07T03:28:38.182Z,0.77
2022-08-07T03:29:49.473Z,1.23
2022-08-07T03:31:24.883Z,1.33
2022-08-07T03:32:48.987Z,0.85
2022-08-07T03:34:01.489Z,0.32
2022-08-07T03:35:17.461Z,0.88
2022-08-07T03:36:22.353Z,0.50
2022-08-07T03:37:32.846Z,0.80
2022-08-07T03:38:50.812Z,1.45
2022-08-07T03:40:15.044Z,1.10
2022-08-07T03:41:20.215Z,1.17
2022-08-07T03:42:44.324Z,1.10
2022-08-07T03:43:57.096Z,0.90
2022-08-07T03:45:07.357Z,0.95
2022-08-07T03:46:18.556Z,0.90
2022-08-07T03:47:22.730Z,0.43
2022-08-07T03:48:26.613Z,0.90
2022-08-07T03:49:32.833Z,0.98
2022-08-07T03:50:55.758Z,1.48
2022-08-07T03:52:02.079Z,0.65
2022-08-07T03:53:04.826Z,0.73
2022-08-07T03:54:35.446Z,0.63
2022-08-07T03:55:58.328Z,1.48
2022-08-07T03:57:07.358Z,0.93
2022-08-07T03:59:05.419Z,0.80
2022-08-07T03:59:35.751Z,1.40
2022-08-07T04:01:00.304Z,0.90
2022-08-07T04:02:04.206Z,0.80
2022-08-07T04:03:06.875Z,1.13
2022-08-07T04:04:17.208Z,0.93
2022-08-07T04:05:24.107Z,1.65
2022-08-07T04:06:51.741Z,0.60
2022-08-07T04:07:54.922Z,1.20
2022-08-07T04:08:58.898Z,1.55
2022-08-07T04:10:02.256Z,1.30
2022-08-07T04:12:15.690Z,1.58
2022-08-07T04:12:38.076Z,1.15
2022-08-07T04:14:09.220Z,0.70
2022-08-07T04:15:13.639Z,0.50
2022-08-07T04:16:30.096Z,0.90
2022-08-07T04:18:31.128Z,0.68
2022-08-07T04:19:12.713Z,1.17
2022-08-07T04:20:19.492Z,1.05
2022-08-07T04:21:31.130Z,1.10
2022-08-07T04:22:53.482Z,0.82
2022-08-07T04:24:03.501Z,0.45
2022-08-07T04:25:12.808Z,1.00
2022-08-07T04:26:16.946Z,0.75
2022-08-07T04:27:25.799Z,0.70
2022-08-07T04:28:36.109Z,1.38
2022-08-07T04:29:58.200Z,0.77
2022-08-07T04:31:04.702Z,0.95
2022-08-07T04:32:10.869Z,1.23
2022-08-07T04:33:15.690Z,0.90
2022-08-07T04:34:27.614Z,1.42
2022-08-07T04:35:37.123Z,0.82
2022-08-07T04:36:42.884Z,0.82
2022-08-07T04:38:03.066Z,0.88
2022-08-07T04:39:07.339Z,1.17
2022-08-07T04:40:21.079Z,1.13
2022-08-07T04:41:24.502Z,0.82
2022-08-07T04:42:30.911Z,1.00
2022-08-07T04:44:09.865Z,1.58
2022-08-07T04:45:08.113Z,1.27
2022-08-07T04:46:25.765Z,0.80
2022-08-07T04:47:58.812Z,0.80
2022-08-07T04:49:18.422Z,1.10
2022-08-07T04:50:33.346Z,0.90
2022-08-07T04:51:39.810Z,0.90
2022-08-07T04:52:46.805Z,0.85
2022-08-07T04:54:06.676Z,1.15
2022-08-07T04:55:15.531Z,1.10
2022-08-07T04:58:16.149Z,1.00
2022-08-07T04:58:29.230Z,0.75
2022-08-07T05:00:14.611Z,0.93
2022-08-07T05:01:18.101Z,1.10
2022-08-07T05:02:23.999Z,1.08
2022-08-07T05:04:00.212Z,1.10
2022-08-07T05:05:02.066Z,1.38
2022-08-07T05:06:19.976Z,0.77
2022-08-07T05:07:36.981Z,1.00
2022-08-07T05:09:01.035Z,0.60
2022-08-07T05:10:07.768Z,0.75
2022-08-07T05:11:19.205Z,1.40
2022-08-07T05:12:38.101Z,1.50
2022-08-07T05:14:54.548Z,0.70
2022-08-07T05:15:27.128Z,1.00
2022-08-07T05:16:32.313Z,1.60
2022-08-07T05:17:52.096Z,0.63
2022-08-07T05:19:00.206Z,0.93
2022-08-07T05:20:09.680Z,1.58
2022-08-07T05:21:59.143Z,1.08
2022-08-07T05:22:51.291Z,1.30
2022-08-07T05:24:04.652Z,0.80
2022-08-07T05:25:11.834Z,1.02
2022-08-07T05:26:38.109Z,0.63
2022-08-07T05:28:16.014Z,1.15
2022-08-07T05:29:05.915Z,0.88
2022-08-07T05:30:09.186Z,0.98
2022-08-07T05:31:21.108Z,0.85
2022-08-07T05:32:27.074Z,0.90
2022-08-07T05:33:32.170Z,1.00
2022-08-07T05:34:38.820Z,1.00
2022-08-07T05:35:45.761Z,1.13
2022-08-07T05:37:00.109Z,1.15
2022-08-07T05:38:09.090Z,1.00
2022-08-07T05:40:05.711Z,1.30
2022-08-07T05:40:37.739Z,0.90
2022-08-07T05:42:05.312Z,0.88
2022-08-07T05:43:11.628Z,1.00
2022-08-07T05:44:22.210Z,1.53
2022-08-07T05:45:46.789Z,1.50
2022-08-07T05:47:00.357Z,1.02
2022-08-07T05:48:06.121Z,0.87
2022-08-07T05:49:12.541Z,1.63
2022-08-07T05:50:15.647Z,1.13
2022-08-07T05:51:20.036Z,1.10
2022-08-07T05:52:32.667Z,1.00
2022-08-07T05:54:09.345Z,1.00
2022-08-07T05:55:10.687Z,0.90
2022-08-07T05:56:14.422Z,1.40
2022-08-07T05:57:26.547Z,0.80
2022-08-07T05:58:36.658Z,0.77
2022-08-07T05:59:55.824Z,1.03
2022-08-07T06:01:01.042Z,1.13
2022-08-07T06:02:09.292Z,1.23
2022-08-07T06:03:21.136Z,1.37
2022-08-07T06:04:30.067Z,1.10
2022-08-07T06:05:33.261Z,1.47
2022-08-07T06:06:38.270Z,2.03
2022-08-07T06:08:14.321Z,1.57
2022-08-07T06:09:19.181Z,0.87
2022-08-07T06:10:22.890Z,2.50
2022-08-07T06:11:26.941Z,2.40
2022-08-07T06:12:38.125Z,2.30
2022-08-07T06:14:12.620Z,1.83
2022-08-07T06:15:16.406Z,1.33
2022-08-07T06:16:23.952Z,2.13
2022-08-07T06:17:38.040Z,2.37
2022-08-07T06:18:51.790Z,3.13
2022-08-07T06:20:04.166Z,2.80
2022-08-07T06:22:15.203Z,4.30
2022-08-07T06:23:02.219Z,2.27
2022-08-07T06:24:46.327Z,1.87
2022-08-07T06:25:39.134Z,1.43
2022-08-07T06:26:42.547Z,2.20
2022-08-07T06:28:01.165Z,3.57
2022-08-07T06:29:12.139Z,2.50
2022-08-07T06:30:32.488Z,4.93
2022-08-07T06:31:49.883Z,4.67
2022-08-07T06:32:53.114Z,6.23
2022-08-07T06:34:04.214Z,7.33
2022-08-07T06:35:10.553Z,8.10
2022-08-07T06:36:27.475Z,8.20
2022-08-07T06:37:43.990Z,8.17
2022-08-07T06:38:51.212Z,7.87
2022-08-07T06:40:12.954Z,7.60
2022-08-07T06:41:47.531Z,7.03
2022-08-07T06:42:47.877Z,8.00
2022-08-07T06:44:01.282Z,6.83
2022-08-07T06:45:19.127Z,8.50
2022-08-07T06:46:31.568Z,7.10
2022-08-07T06:47:57.091Z,7.87
2022-08-07T06:49:04.495Z,6.73
2022-08-07T06:50:10.913Z,6.10
2022-08-07T06:51:31.098Z,4.53
2022-08-07T06:52:38.464Z,5.47
2022-08-07T06:55:27.766Z,5.20
2022-08-07T06:55:31.493Z,4.90
2022-08-07T06:56:53.171Z,4.60
2022-08-07T06:57:59.751Z,5.53
2022-08-07T07:00:12.531Z,3.53
2022-08-07T07:00:29.092Z,3.80
2022-08-07T07:01:43.751Z,3.53
2022-08-07T07:03:00.889Z,3.67
2022-08-07T07:04:28.107Z,3.70
2022-08-07T07:06:03.579Z,2.97
2022-08-07T07:07:00.209Z,3.20
2022-08-07T07:08:12.685Z,2.50
2022-08-07T07:09:23.137Z,1.90
2022-08-07T07:10:29.309Z,1.37
2022-08-07T07:12:08.714Z,1.53
2022-08-07T07:13:00.552Z,1.60
2022-08-07T07:14:12.165Z,1.30
2022-08-07T07:15:23.582Z,1.50
2022-08-07T07:16:30.418Z,1.73
2022-08-07T07:17:39.218Z,1.33
2022-08-07T07:18:57.136Z,1.43
2022-08-07T07:20:04.331Z,1.13
2022-08-07T07:21:19.769Z,1.43
2022-08-07T07:22:36.513Z,1.83
2022-08-07T07:24:06.182Z,1.50
2022-08-07T07:26:34.046Z,1.73
2022-08-07T07:26:51.862Z,1.17
2022-08-07T07:28:29.614Z,1.73
2022-08-07T07:29:40.493Z,1.27
2022-08-07T07:31:01.867Z,1.30
2022-08-07T07:32:15.150Z,0.90
2022-08-07T07:33:18.495Z,1.17
2022-08-07T07:34:30.788Z,0.70
2022-08-07T07:35:50.669Z,0.83
2022-08-07T07:37:21.945Z,1.00
2022-08-07T07:38:37.600Z,0.90
2022-08-07T07:39:52.343Z,1.00
2022-08-07T07:41:02.419Z,0.77
2022-08-07T07:42:13.625Z,0.60
2022-08-07T07:43:27.622Z,0.50
2022-08-07T07:44:55.146Z,0.73
2022-08-07T07:46:53.934Z,0.60
2022-08-07T07:47:28.153Z,0.87
2022-08-07T07:48:35.741Z,0.53
2022-08-07T07:50:34.879Z,0.60
2022-08-07T07:51:07.875Z,0.53
2022-08-07T07:52:19.173Z,0.70
2022-08-07T07:53:25.812Z,0.40
2022-08-07T07:54:36.008Z,0.43
2022-08-07T07:55:45.555Z,0.80
2022-08-07T07:56:58.407Z,0.50
2022-08-07T07:58:11.164Z,0.57
2022-08-07T07:59:15.045Z,0.43
2022-08-07T08:00:28.812Z,0.50
2022-08-07T08:02:02.743Z,0.60
2022-08-07T08:03:07.939Z,0.57
2022-08-07T08:04:12.580Z,0.60
2022-08-07T08:05:22.278Z,0.50
2022-08-07T08:06:27.912Z,0.60
2022-08-07T08:07:35.773Z,0.50
2022-08-07T08:08:53.171Z,0.20
2022-08-07T08:10:05.253Z,0.20
2022-08-07T08:11:59.249Z,0.50
2022-08-07T08:12:59.955Z,0.47
2022-08-07T08:14:12.153Z,0.20
2022-08-07T08:15:15.730Z,0.83
2022-08-07T08:16:29.885Z,0.50
2022-08-07T08:17:57.872Z,0.70
2022-08-07T08:19:09.737Z,0.20
2022-08-07T08:20:27.317Z,0.93
2022-08-07T08:22:07.889Z,0.63
2022-08-07T08:23:30.038Z,0.50
2022-08-07T08:25:04.802Z,0.30
2022-08-07T08:26:50.579Z,0.60
2022-08-07T08:28:01.952Z,0.70
2022-08-07T08:29:08.848Z,0.60
2022-08-07T08:30:17.337Z,0.53
2022-08-07T08:31:30.391Z,0.50
2022-08-07T08:32:56.225Z,0.30
2022-08-07T08:34:00.869Z,0.50
2022-08-07T08:35:04.301Z,0.30
2022-08-07T08:36:09.340Z,0.50
2022-08-07T08:37:59.196Z,0.70
2022-08-07T08:38:46.204Z,0.50
2022-08-07T08:39:54.846Z,0.60
2022-08-07T08:41:05.077Z,0.23
2022-08-07T08:42:13.622Z,0.40
2022-08-07T08:43:41.846Z,0.60
2022-08-07T08:44:50.485Z,0.80
2022-08-07T08:45:59.066Z,0.30
2022-08-07T08:47:09.822Z,0.20
2022-08-07T08:48:28.540Z,0.50
2022-08-07T08:49:57.175Z,0.70
2022-08-07T08:51:14.681Z,0.60
2022-08-07T08:52:36.291Z,0.40
2022-08-07T08:53:52.200Z,1.13
2022-08-07T08:55:01.174Z,0.50
2022-08-07T08:56:10.260Z,0.80
2022-08-07T08:57:18.506Z,0.47
2022-08-07T08:58:29.723Z,0.63
2022-08-07T08:59:47.935Z,0.40
2022-08-07T09:00:53.479Z,0.40
2022-08-07T09:02:09.006Z,0.87
2022-08-07T09:03:47.399Z,0.50
2022-08-07T09:05:00.180Z,0.50
2022-08-07T09:06:10.493Z,0.30
2022-08-07T09:07:24.376Z,0.40
2022-08-07T09:08:46.812Z,0.40
2022-08-07T09:09:56.644Z,0.43
2022-08-07T09:11:24.482Z,0.30
2022-08-07T09:12:53.006Z,0.47
2022-08-07T09:14:08.190Z,0.40
2022-08-07T09:16:22.377Z,0.50
2022-08-07T09:17:00.370Z,0.63
2022-08-07T09:18:15.696Z,0.23
2022-08-07T09:19:52.315Z,0.20
2022-08-07T09:21:01.382Z,0.40
2022-08-07T09:24:30.859Z,0.20
2022-08-07T09:24:32.713Z,0.40
2022-08-07T09:25:25.936Z,0.20
2022-08-07T09:26:39.227Z,0.20
2022-08-07T09:28:00.331Z,0.50
2022-08-07T09:30:05.650Z,0.30
2022-08-07T09:30:37.630Z,0.40
2022-08-07T09:31:51.208Z,0.40
2022-08-07T09:33:16.458Z,0.50
2022-08-07T09:34:31.588Z,0.30
2022-08-07T09:36:04.671Z,0.30
2022-08-07T09:37:08.068Z,0.40
2022-08-07T09:38:21.070Z,0.40
2022-08-07T09:39:54.506Z,0.30
2022-08-07T09:41:01.949Z,0.50
2022-08-07T09:42:23.030Z,0.20
2022-08-07T09:44:03.455Z,0.20
2022-08-07T09:47:25.742Z,0.17
2022-08-07T09:47:52.329Z,0.50
2022-08-07T09:48:12.097Z,0.73
2022-08-07T09:50:02.654Z,0.50
2022-08-07T09:51:02.017Z,0.40
2022-08-07T09:52:15.482Z,0.23
2022-08-07T09:53:40.855Z,0.30
2022-08-07T09:55:05.195Z,0.50
2022-08-07T09:56:46.390Z,0.60
2022-08-07T09:58:11.529Z,0.40
2022-08-07T09:59:44.693Z,0.43
2022-08-07T10:01:03.665Z,0.47
2022-08-07T10:02:31.577Z,0.27
2022-08-07T10:04:03.088Z,0.20
2022-08-07T10:05:38.665Z,0.30
2022-08-07T10:06:55.633Z,0.20
2022-08-07T10:08:14.234Z,0.30
2022-08-07T10:09:58.877Z,0.60
2022-08-07T10:11:59.418Z,0.50
2022-08-07T10:12:40.849Z,0.40
2022-08-07T10:14:11.424Z,0.70
2022-08-07T10:15:28.337Z,0.27
2022-08-07T10:16:37.447Z,0.40
2022-08-07T10:18:01.067Z,0.90
2022-08-07T10:19:14.535Z,0.53
2022-08-07T10:20:21.932Z,0.70
2022-08-07T10:22:14.871Z,0.40
2022-08-07T10:24:06.018Z,0.20
2022-08-07T10:25:12.230Z,0.50
2022-08-07T10:26:35.763Z,0.23
2022-08-07T10:27:47.677Z,0.30
2022-08-07T10:28:59.778Z,0.73
2022-08-07T10:30:13.241Z,0.23
2022-08-07T10:31:25.940Z,0.27
2022-08-07T10:32:59.655Z,0.20
2022-08-07T10:34:17.860Z,0.67
2022-08-07T10:35:56.446Z,0.20
2022-08-07T10:37:04.062Z,0.40
2022-08-07T10:38:36.157Z,0.50
2022-08-07T10:39:57.459Z,0.30
2022-08-07T10:41:10.649Z,0.47
2022-08-07T10:42:31.195Z,0.30
2022-08-07T10:43:50.272Z,0.37
2022-08-07T10:44:58.428Z,0.20
2022-08-07T10:46:03.234Z,0.60
2022-08-07T10:47:14.195Z,0.50
2022-08-07T10:48:34.920Z,0.30
2022-08-07T10:49:50.803Z,0.43
2022-08-07T10:51:04.246Z,0.40
2022-08-07T10:52:13.122Z,0.33
2022-08-07T10:53:22.589Z,0.50
2022-08-07T10:54:36.293Z,0.40
2022-08-07T10:55:50.256Z,0.90
2022-08-07T10:57:04.589Z,0.30
2022-08-07T10:58:17.766Z,0.60
2022-08-07T10:59:37.398Z,0.60
2022-08-07T11:00:56.424Z,0.63
2022-08-07T11:02:12.379Z,0.30
2022-08-07T11:03:37.257Z,0.10
2022-08-07T11:04:51.417Z,0.40
2022-08-07T11:05:57.558Z,0.17
2022-08-07T11:07:03.985Z,0.20
2022-08-07T11:08:30.156Z,0.47
2022-08-07T11:10:08.894Z,0.27
2022-08-07T11:11:05.634Z,0.43
2022-08-07T11:12:32.222Z,0.30
2022-08-07T11:14:45.363Z,0.70
2022-08-07T11:15:09.546Z,0.63
2022-08-07T11:16:29.726Z,0.20
2022-08-07T11:17:43.450Z,0.30
2022-08-07T11:18:58.255Z,0.50
2022-08-07T11:20:06.396Z,0.20
2022-08-07T11:21:16.840Z,0.20
2022-08-07T11:22:45.987Z,0.73
2022-08-07T11:24:01.098Z,0.20
2022-08-07T11:25:07.448Z,0.50
2022-08-07T11:26:15.127Z,0.38
2022-08-07T11:27:48.854Z,0.30
2022-08-07T11:29:05.695Z,0.30
2022-08-07T11:30:19.276Z,0.20
2022-08-07T11:31:36.296Z,0.80
2022-08-07T11:32:47.291Z,0.47
2022-08-07T11:33:59.451Z,0.30
2022-08-07T11:35:07.131Z,0.40
2022-08-07T11:36:25.481Z,0.30
2022-08-07T11:37:57.975Z,0.25
2022-08-07T11:39:39.657Z,0.40
2022-08-07T11:41:07.797Z,0.40
2022-08-07T11:42:18.567Z,0.20
2022-08-07T11:43:29.469Z,0.40
2022-08-07T11:44:58.029Z,0.63
2022-08-07T11:46:10.849Z,0.40
2022-08-07T11:47:20.087Z,0.40
2022-08-07T11:48:32.180Z,0.32
2022-08-07T11:50:31.242Z,0.50
2022-08-07T11:51:41.172Z,0.32
2022-08-07T11:52:52.028Z,0.20
2022-08-07T11:54:10.353Z,0.40
2022-08-07T11:56:09.431Z,0.55
2022-08-07T11:56:52.421Z,0.30
2022-08-07T11:58:04.875Z,0.45
2022-08-07T12:00:11.341Z,0.40
2022-08-07T12:01:20.192Z,0.50
2022-08-07T12:02:34.289Z,0.38
2022-08-07T12:03:59.306Z,0.43
2022-08-07T12:05:28.909Z,0.20
2022-08-07T12:06:55.371Z,0.43
2022-08-07T12:08:25.464Z,0.30
2022-08-07T12:09:38.239Z,0.30
2022-08-07T12:10:49.331Z,0.30
2022-08-07T12:12:12.582Z,0.50
2022-08-07T12:13:36.700Z,0.40
2022-08-07T12:14:53.796Z,0.30
2022-08-07T12:16:10.284Z,0.60
2022-08-07T12:17:20.488Z,0.45
2022-08-07T12:18:29.849Z,0.38
2022-08-07T12:19:56.366Z,0.35
2022-08-07T12:21:14.991Z,0.30
2022-08-07T12:22:47.368Z,0.20
2022-08-07T12:24:37.654Z,0.30
2022-08-07T12:26:05.723Z,0.30
2022-08-07T12:27:28.074Z,0.52
2022-08-07T12:28:54.348Z,0.37
2022-08-07T12:30:01.418Z,0.23
2022-08-07T12:31:06.326Z,0.53
2022-08-07T12:32:21.291Z,0.30
2022-08-07T12:33:46.280Z,0.30
2022-08-07T12:34:59.275Z,0.30
2022-08-07T12:36:05.629Z,0.93
2022-08-07T12:37:16.437Z,0.40
2022-08-07T12:38:38.466Z,0.30
2022-08-07T12:39:53.320Z,0.40
2022-08-07T12:40:59.326Z,0.57
2022-08-07T12:42:07.292Z,0.10
2022-08-07T12:43:11.663Z,0.40
2022-08-07T12:44:36.380Z,0.30
2022-08-07T12:45:52.283Z,0.60
2022-08-07T12:47:02.345Z,0.38
2022-08-07T12:48:27.666Z,0.37
2022-08-07T12:49:44.368Z,0.50
2022-08-07T12:51:12.991Z,0.50
2022-08-07T12:52:28.943Z,0.40
2022-08-07T12:54:03.225Z,0.45
2022-08-07T12:55:16.437Z,0.57
2022-08-07T12:56:24.819Z,0.43
2022-08-07T12:57:39.108Z,0.40
2022-08-07T12:59:03.302Z,0.70
2022-08-07T13:00:16.298Z,0.40
2022-08-07T13:01:32.412Z,0.27
2022-08-07T13:02:50.287Z,0.40
2022-08-07T13:04:09.796Z,0.30
2022-08-07T13:06:03.356Z,0.53
2022-08-07T13:07:01.992Z,0.50
2022-08-07T13:08:31.326Z,0.30
2022-08-07T13:10:20.028Z,0.63
2022-08-07T13:11:29.319Z,0.50
2022-08-07T13:12:38.211Z,0.20
2022-08-07T13:13:53.794Z,0.70
2022-08-07T13:15:02.710Z,0.20
2022-08-07T13:16:19.321Z,0.30
2022-08-07T13:17:40.995Z,0.50
2022-08-07T13:18:50.884Z,0.60
2022-08-07T13:20:02.434Z,0.37
2022-08-07T13:21:11.512Z,0.40
2022-08-07T13:22:41.384Z,0.40
2022-08-07T13:24:01.217Z,0.60
2022-08-07T13:25:29.040Z,0.47
2022-08-07T13:26:37.201Z,0.30
2022-08-07T13:28:11.724Z,0.40
2022-08-07T13:29:15.311Z,0.57
2022-08-07T13:30:40.196Z,0.57
2022-08-07T13:31:57.570Z,0.90
2022-08-07T13:33:16.374Z,0.30
2022-08-07T13:34:44.669Z,0.83
2022-08-07T13:36:01.371Z,0.40
2022-08-07T13:37:22.325Z,0.30
2022-08-07T13:38:30.494Z,0.30
2022-08-07T13:40:34.184Z,0.40
2022-08-07T13:41:04.526Z,0.40
2022-08-07T13:42:24.782Z,0.40
2022-08-07T13:43:29.078Z,0.50
2022-08-07T13:44:39.812Z,0.30
2022-08-07T13:46:10.766Z,0.50
2022-08-07T13:47:25.248Z,0.40
2022-08-07T13:48:34.651Z,0.30
2022-08-07T13:50:32.957Z,0.47
2022-08-07T13:51:27.076Z,0.40
2022-08-07T13:52:41.035Z,0.50
2022-08-07T13:54:00.516Z,0.47
2022-08-07T13:55:08.275Z,0.40
2022-08-07T13:56:35.419Z,0.40
2022-08-07T13:57:48.738Z,0.35
2022-08-07T13:59:05.832Z,0.17
2022-08-07T14:00:26.645Z,0.50
2022-08-07T14:01:51.373Z,0.55
2022-08-07T14:03:01.112Z,0.38
2022-08-07T14:04:08.640Z,0.45
2022-08-07T14:05:20.391Z,0.30
2022-08-07T14:06:24.742Z,0.50
2022-08-07T14:07:30.927Z,0.63
2022-08-07T14:08:37.687Z,0.73
2022-08-07T14:10:12.265Z,0.35
2022-08-07T14:11:15.421Z,0.88
2022-08-07T14:12:28.039Z,0.57
2022-08-07T14:13:33.492Z,0.30
2022-08-07T14:14:44.066Z,0.57
2022-08-07T14:15:53.866Z,0.40
2022-08-07T14:17:32.098Z,0.60
2022-08-07T14:18:33.684Z,0.60
2022-08-07T14:20:39.813Z,0.50
2022-08-07T14:21:08.378Z,0.70
2022-08-07T14:22:45.403Z,0.40
2022-08-07T14:24:01.703Z,0.40
2022-08-07T14:25:10.870Z,0.50
2022-08-07T14:26:28.264Z,0.30
2022-08-07T14:28:10.587Z,0.30
2022-08-07T14:30:05.623Z,0.40
2022-08-07T14:30:32.555Z,0.43
2022-08-07T14:31:42.857Z,0.60
2022-08-07T14:33:04.355Z,1.27
2022-08-07T14:34:20.225Z,0.97
2022-08-07T14:35:43.312Z,0.60
2022-08-07T14:36:56.256Z,0.53
2022-08-07T14:38:05.568Z,0.90
2022-08-07T14:39:12.549Z,0.53
2022-08-07T14:40:43.409Z,0.60
2022-08-07T14:42:22.374Z,0.50
2022-08-07T14:43:59.432Z,0.60
2022-08-07T14:44:53.401Z,0.70
2022-08-07T14:45:57.794Z,0.50
2022-08-07T14:47:14.180Z,0.50
2022-08-07T14:49:56.885Z,0.60
2022-08-07T14:51:16.281Z,0.50
2022-08-07T14:52:24.501Z,0.30
2022-08-07T14:55:07.355Z,0.73
2022-08-07T14:56:29.597Z,1.23
2022-08-07T14:59:01.583Z,0.40
2022-08-07T15:00:11.352Z,0.73
2022-08-07T15:01:40.361Z,0.50
2022-08-07T15:02:56.815Z,0.30
2022-08-07T15:04:05.708Z,0.43
2022-08-07T15:06:47.882Z,0.97
2022-08-07T15:07:59.711Z,0.30
2022-08-07T15:09:57.285Z,0.50
2022-08-07T15:10:30.176Z,0.40
2022-08-07T15:13:05.887Z,0.63
2022-08-07T15:13:17.346Z,0.93
2022-08-07T15:14:25.300Z,0.60
2022-08-07T15:15:41.322Z,0.60
2022-08-07T15:16:54.839Z,0.67
2022-08-07T15:18:14.535Z,0.47
2022-08-07T15:19:44.094Z,1.07
2022-08-07T15:21:03.895Z,1.43
2022-08-07T15:22:23.261Z,0.93
2022-08-07T15:25:15.070Z,0.73
2022-08-07T15:25:19.265Z,1.10
2022-08-07T15:26:28.645Z,1.07
2022-08-07T15:27:34.387Z,0.97
2022-08-07T15:28:56.711Z,1.03
2022-08-07T15:32:00.570Z,1.67
2022-08-07T15:33:19.482Z,1.50
2022-08-07T15:34:26.174Z,0.83
2022-08-07T15:36:01.564Z,0.63
2022-08-07T15:37:06.732Z,1.50
2022-08-07T15:39:57.162Z,1.40
2022-08-07T15:41:00.523Z,1.30
2022-08-07T15:42:47.600Z,1.40
2022-08-07T15:44:00.284Z,1.40
2022-08-07T15:45:03.655Z,1.53
2022-08-07T15:46:32.460Z,1.13
2022-08-07T15:48:01.074Z,1.23
2022-08-07T15:50:37.986Z,1.17
2022-08-07T15:52:01.324Z,1.20
2022-08-07T15:53:07.630Z,1.40
2022-08-07T15:54:12.363Z,1.03
2022-08-07T15:55:53.939Z,1.43
2022-08-07T15:56:49.307Z,1.10
2022-08-07T15:57:54.428Z,1.07
2022-08-07T15:59:06.409Z,1.17
2022-08-07T16:00:31.968Z,1.53
2022-08-07T16:01:46.531Z,2.10
2022-08-07T16:03:22.193Z,1.50
2022-08-07T16:04:33.511Z,1.77
2022-08-07T16:05:44.354Z,1.60
2022-08-07T16:06:57.415Z,1.10
2022-08-07T16:08:30.942Z,1.23
2022-08-07T16:09:42.309Z,1.37
2022-08-07T16:10:49.793Z,1.17
2022-08-07T16:12:01.829Z,0.97
2022-08-07T16:13:18.082Z,0.77
2022-08-07T16:14:55.385Z,1.27
2022-08-07T16:16:42.742Z,1.17
2022-08-07T16:18:02.700Z,1.00
2022-08-07T16:19:20.440Z,0.97
2022-08-07T16:20:56.797Z,1.20
2022-08-07T16:22:38.647Z,1.10
2022-08-07T16:24:34.785Z,1.10
2022-08-07T16:25:55.664Z,0.93
2022-08-07T16:27:04.876Z,1.00
2022-08-07T16:30:05.972Z,1.27
2022-08-07T16:30:30.599Z,0.80
2022-08-07T16:31:51.046Z,1.00
2022-08-07T16:34:02.931Z,0.90
2022-08-07T16:34:51.760Z,1.10
2022-08-07T16:36:32.373Z,0.67
2022-08-07T16:38:03.684Z,0.83
2022-08-07T16:39:40.676Z,1.30
2022-08-07T16:41:11.509Z,1.00
2022-08-07T16:42:32.741Z,0.90
2022-08-07T16:44:06.131Z,1.17
2022-08-07T16:46:33.208Z,1.23
2022-08-07T16:47:16.625Z,1.10
2022-08-07T16:49:10.590Z,1.20
2022-08-07T16:50:36.321Z,1.10
2022-08-07T16:52:01.260Z,1.10
2022-08-07T16:54:01.711Z,1.23
2022-08-07T16:54:54.199Z,1.17
2022-08-07T16:56:01.751Z,1.10
2022-08-07T16:57:15.819Z,1.10
2022-08-07T16:59:11.409Z,1.13
2022-08-07T17:00:29.657Z,0.97
2022-08-07T17:01:43.421Z,1.13
2022-08-07T17:03:04.927Z,1.00
2022-08-07T17:04:24.639Z,1.03